Time;durP1;ratioP1;P1;durP2;ratioP2;P2;SDS_P1;SDS_P2;PMS_P1;PMS_P2;Temp;Humidity;BMP_temperature;BMP_pressure;BME280_temperature;BME280_humidity;BME280_pressure;Samples;Min_cycle;Max_cycle;Signal;HPM_P1;HPM_P2
2022/03/14 00:01:16;;;;;;;8.13;5.95;;;9.40;99.90;;;;;;5094387;28;20044;-86
2022/03/14 00:03:50;;;;;;;9.95;6.55;;;9.30;99.90;;;;;;5093826;28;20085;-88
2022/03/14 00:06:17;;;;;;;11.05;7.05;;;9.20;99.90;;;;;;5094096;28;20075;-87
2022/03/14 00:08:45;;;;;;;9.57;6.32;;;9.20;99.90;;;;;;5094022;28;20044;-86
2022/03/14 00:11:16;;;;;;;9.23;5.80;;;9.30;99.90;;;;;;5094225;28;20048;-87
2022/03/14 00:13:46;;;;;;;8.50;6.13;;;9.00;99.90;;;;;;5076768;28;20055;-86
2022/03/14 00:16:18;;;;;;;8.30;6.00;;;9.30;99.90;;;;;;5093784;28;20044;-87
2022/03/14 00:18:51;;;;;;;12.07;5.90;;;9.30;99.90;;;;;;5093481;28;20046;-86
2022/03/14 00:21:20;;;;;;;11.80;5.70;;;9.40;99.90;;;;;;5093905;28;20083;-86
2022/03/14 00:23:46;;;;;;;8.77;5.63;;;9.50;99.90;;;;;;5093682;28;20048;-87
2022/03/14 00:26:12;;;;;;;8.77;5.50;;;9.40;99.90;;;;;;5093820;28;20063;-87
2022/03/14 00:28:38;;;;;;;7.90;5.57;;;9.60;99.90;;;;;;5093349;28;20051;-86
2022/03/14 00:31:03;;;;;;;7.85;4.68;;;9.60;99.90;;;;;;5093356;28;20091;-86
2022/03/14 00:33:29;;;;;;;6.22;4.63;;;9.60;99.90;;;;;;5093601;28;20080;-86
2022/03/14 00:35:58;;;;;;;5.38;4.20;;;9.60;99.90;;;;;;5093725;28;20048;-86
2022/03/14 00:38:25;;;;;;;7.45;4.28;;;9.70;99.90;;;;;;5093409;28;20098;-87
2022/03/14 00:40:51;;;;;;;5.57;3.85;;;9.70;99.90;;;;;;5093448;28;20188;-87
2022/03/14 00:43:18;;;;;;;4.88;3.83;;;9.80;99.90;;;;;;5093250;28;20055;-87
2022/03/14 00:45:44;;;;;;;5.20;3.85;;;9.80;99.90;;;;;;5076278;28;20409;-86
2022/03/14 00:48:10;;;;;;;4.95;3.67;;;9.80;99.90;;;;;;5093305;28;20062;-86
2022/03/14 00:50:36;;;;;;;6.97;3.90;;;10.10;99.90;;;;;;5092157;28;20052;-87
2022/03/14 00:53:02;;;;;;;6.90;4.00;;;9.90;99.90;;;;;;5093184;28;20079;-87
2022/03/14 00:55:28;;;;;;;6.25;4.10;;;9.90;99.90;;;;;;5093090;28;20046;-86
2022/03/14 00:57:54;;;;;;;7.32;4.20;;;9.90;99.90;;;;;;5092915;28;20169;-86
2022/03/14 01:00:19;;;;;;;6.60;3.83;;;9.80;99.90;;;;;;5092771;28;20075;-86
2022/03/14 01:02:48;;;;;;;5.82;3.97;;;9.80;99.90;;;;;;5075769;28;20087;-87
2022/03/14 01:05:14;;;;;;;4.80;3.90;;;10.00;99.90;;;;;;5093099;28;20047;-86
2022/03/14 01:07:40;;;;;;;4.22;3.55;;;10.00;99.90;;;;;;5092723;28;20052;-86
2022/03/14 01:10:06;;;;;;;6.20;3.53;;;9.80;99.90;;;;;;5092602;28;20055;-86
2022/03/14 01:12:32;;;;;;;5.05;3.42;;;9.80;99.90;;;;;;5075437;28;20131;-86
2022/03/14 01:14:58;;;;;;;7.47;3.50;;;9.80;99.90;;;;;;5092474;28;20532;-87
2022/03/14 01:17:24;;;;;;;4.45;3.22;;;9.90;99.90;;;;;;5092775;28;20051;-86
2022/03/14 01:19:49;;;;;;;4.88;3.50;;;9.80;99.90;;;;;;5092886;28;20119;-86
2022/03/14 01:22:15;;;;;;;5.53;3.60;;;9.90;99.90;;;;;;5092862;28;20052;-86
2022/03/14 01:24:43;;;;;;;5.30;3.67;;;9.90;99.90;;;;;;5092373;28;20052;-88
2022/03/14 01:27:09;;;;;;;6.82;3.58;;;9.90;99.90;;;;;;5092704;28;20131;-86
2022/03/14 01:29:35;;;;;;;5.85;3.65;;;10.00;99.90;;;;;;5091051;28;20143;-87
2022/03/14 01:32:06;;;;;;;7.53;4.00;;;10.00;99.90;;;;;;5092508;28;20466;-87
2022/03/14 01:34:32;;;;;;;5.65;3.83;;;10.00;99.90;;;;;;5092434;28;20401;-86
2022/03/14 01:36:58;;;;;;;7.53;3.65;;;10.00;99.90;;;;;;5092373;28;20063;-87
2022/03/14 01:39:24;;;;;;;5.95;3.88;;;10.00;99.90;;;;;;5091895;28;20052;-87
2022/03/14 01:41:50;;;;;;;6.40;3.42;;;10.00;99.90;;;;;;5092228;28;20047;-87
2022/03/14 01:44:16;;;;;;;5.32;3.67;;;10.00;99.90;;;;;;5091961;28;20478;-86
2022/03/14 01:46:42;;;;;;;6.20;3.83;;;9.90;99.90;;;;;;5074759;28;20056;-86
2022/03/14 01:49:09;;;;;;;5.30;3.80;;;9.90;99.90;;;;;;5092007;28;20044;-86
2022/03/14 01:51:35;;;;;;;4.90;3.50;;;9.90;99.90;;;;;;5092240;28;20062;-86
2022/03/14 01:54:02;;;;;;;4.80;3.53;;;9.80;99.90;;;;;;5091974;28;20039;-86
2022/03/14 01:56:28;;;;;;;4.78;3.97;;;9.80;99.90;;;;;;5091959;28;20097;-86
2022/03/14 01:58:54;;;;;;;5.38;3.72;;;9.80;99.90;;;;;;5091888;28;20047;-86
2022/03/14 02:01:20;;;;;;;6.40;3.75;;;9.80;99.90;;;;;;5091467;28;20070;-87
2022/03/14 02:03:50;;;;;;;6.65;3.55;;;10.00;99.90;;;;;;5091885;28;20515;-86
2022/03/14 02:06:17;;;;;;;5.50;4.00;;;9.90;99.90;;;;;;5091951;28;20052;-87
2022/03/14 02:08:43;;;;;;;4.05;3.42;;;9.80;99.90;;;;;;5092878;28;20052;-86
2022/03/14 02:11:09;;;;;;;6.13;3.50;;;9.80;99.90;;;;;;5091843;28;20039;-87
2022/03/14 02:13:34;;;;;;;5.13;3.40;;;9.70;99.90;;;;;;5091854;28;20460;-86
2022/03/14 02:16:00;;;;;;;5.03;3.40;;;9.80;99.90;;;;;;5074131;28;20060;-87
2022/03/14 02:18:26;;;;;;;4.97;3.40;;;9.80;99.90;;;;;;5091376;28;20063;-86
2022/03/14 02:20:52;;;;;;;4.55;3.50;;;9.80;99.90;;;;;;5091681;28;20565;-87
2022/03/14 02:23:18;;;;;;;4.50;3.28;;;9.80;99.90;;;;;;5091560;28;20083;-86
2022/03/14 02:25:48;;;;;;;5.22;3.67;;;9.80;99.90;;;;;;5091867;28;20047;-86
2022/03/14 02:28:15;;;;;;;5.00;3.55;;;9.80;99.90;;;;;;5091485;28;20048;-87
2022/03/14 02:30:42;;;;;;;5.13;3.22;;;9.90;99.90;;;;;;5091023;28;20060;-87
2022/03/14 02:33:08;;;;;;;5.28;3.60;;;9.90;99.90;;;;;;5091552;28;20134;-86
2022/03/14 02:35:35;;;;;;;6.28;3.58;;;10.10;99.90;;;;;;5091528;28;20067;-86
2022/03/14 02:38:01;;;;;;;5.72;3.97;;;10.10;99.90;;;;;;5091174;28;20065;-86
2022/03/14 02:40:27;;;;;;;5.05;3.80;;;9.90;99.90;;;;;;5091016;28;20255;-86
2022/03/14 02:42:54;;;;;;;4.78;3.45;;;9.90;99.90;;;;;;5091308;28;20459;-86
2022/03/14 02:45:19;;;;;;;4.35;3.67;;;9.90;99.90;;;;;;5091138;28;20055;-86
2022/03/14 02:47:45;;;;;;;4.82;3.90;;;9.90;99.90;;;;;;5091556;28;20043;-86
2022/03/14 02:50:11;;;;;;;13.23;4.10;;;9.90;99.90;;;;;;5091223;28;20036;-86
2022/03/14 02:52:36;;;;;;;5.40;3.90;;;9.90;99.90;;;;;;5091327;28;20052;-86
2022/03/14 02:55:03;;;;;;;4.80;3.80;;;9.90;99.90;;;;;;5091225;28;20054;-86
2022/03/14 02:57:31;;;;;;;4.95;3.60;;;9.90;99.90;;;;;;5091079;28;20075;-87
2022/03/14 02:59:57;;;;;;;5.93;4.00;;;9.90;99.90;;;;;;5074403;28;20040;-87
2022/03/14 03:02:25;;;;;;;5.47;3.50;;;9.90;99.90;;;;;;5091338;28;20421;-86
2022/03/14 03:04:51;;;;;;;5.00;3.80;;;9.90;99.90;;;;;;5091350;28;20036;-86
2022/03/14 03:07:19;;;;;;;4.68;3.60;;;9.90;99.90;;;;;;5091194;28;20040;-86
2022/03/14 03:09:45;;;;;;;4.55;3.42;;;9.90;99.90;;;;;;5090937;28;20047;-86
2022/03/14 03:12:14;;;;;;;3.97;3.25;;;9.90;99.90;;;;;;5090945;28;20463;-86
2022/03/14 03:14:40;;;;;;;5.88;3.45;;;9.90;99.90;;;;;;5091074;28;20083;-86
2022/03/14 03:17:06;;;;;;;6.20;3.63;;;9.80;99.90;;;;;;5091183;28;20070;-86
2022/03/14 03:19:33;;;;;;;4.40;3.60;;;9.90;99.90;;;;;;5091078;28;20437;-86
2022/03/14 03:21:59;;;;;;;6.55;3.55;;;9.90;99.90;;;;;;5092058;28;20101;-86
2022/03/14 03:24:24;;;;;;;5.93;3.47;;;9.90;99.90;;;;;;5091057;28;20435;-86
2022/03/14 03:26:51;;;;;;;4.05;3.38;;;9.90;99.90;;;;;;5090897;28;20123;-86
2022/03/14 03:29:17;;;;;;;5.20;3.58;;;9.80;99.90;;;;;;5089725;28;20048;-86
2022/03/14 03:31:42;;;;;;;4.32;3.40;;;10.10;99.90;;;;;;5090924;28;20052;-86
2022/03/14 03:34:08;;;;;;;4.60;3.28;;;9.90;99.90;;;;;;5090776;28;20044;-86
2022/03/14 03:36:34;;;;;;;4.18;3.08;;;9.90;99.90;;;;;;5090999;28;20185;-87
2022/03/14 03:38:59;;;;;;;3.30;2.90;;;9.80;99.90;;;;;;5090804;28;20044;-85
2022/03/14 03:41:26;;;;;;;4.05;2.80;;;10.00;99.90;;;;;;5090896;28;20063;-86
2022/03/14 03:43:51;;;;;;;3.33;2.83;;;9.80;99.90;;;;;;5091738;28;20058;-86
2022/03/14 03:46:17;;;;;;;4.68;2.97;;;9.80;99.90;;;;;;5090421;28;20055;-86
2022/03/14 03:48:43;;;;;;;4.70;3.10;;;9.80;99.90;;;;;;5091748;28;20128;-86
2022/03/14 03:51:08;;;;;;;3.83;3.00;;;9.80;99.90;;;;;;5090897;28;20492;-86
2022/03/14 03:53:34;;;;;;;4.15;2.90;;;9.70;99.90;;;;;;5093108;28;20052;-86
2022/03/14 03:56:00;;;;;;;3.33;2.58;;;9.70;99.90;;;;;;5094417;28;20048;-86
2022/03/14 03:58:25;;;;;;;4.28;3.10;;;9.80;99.90;;;;;;5094055;28;20547;-86
2022/03/14 04:00:51;;;;;;;3.38;2.70;;;9.60;99.90;;;;;;5093907;28;20159;-87
2022/03/14 04:03:20;;;;;;;3.65;2.80;;;9.60;99.90;;;;;;5094305;28;20071;-86
2022/03/14 04:05:47;;;;;;;5.28;3.30;;;9.60;99.90;;;;;;5094269;28;20544;-86
2022/03/14 04:08:13;;;;;;;4.00;2.80;;;9.50;99.90;;;;;;5094225;28;20138;-86
2022/03/14 04:10:39;;;;;;;4.18;3.10;;;9.50;99.90;;;;;;5093990;28;20136;-86
2022/03/14 04:13:06;;;;;;;4.57;3.30;;;9.60;99.90;;;;;;5093823;28;20552;-86
2022/03/14 04:15:41;;;;;;;4.68;3.30;;;9.70;99.90;;;;;;5093802;28;20048;-87
2022/03/14 04:18:07;;;;;;;4.03;3.10;;;9.50;99.90;;;;;;5094063;28;20052;-86
2022/03/14 04:20:32;;;;;;;4.70;3.40;;;9.50;99.90;;;;;;5076622;28;20052;-86
2022/03/14 04:22:58;;;;;;;4.28;3.13;;;9.50;99.90;;;;;;5094803;28;20080;-86
2022/03/14 04:25:24;;;;;;;5.68;3.47;;;9.50;99.90;;;;;;5093678;28;20054;-87
2022/03/14 04:27:50;;;;;;;4.47;2.92;;;9.50;99.90;;;;;;5076326;28;20056;-86
2022/03/14 04:30:16;;;;;;;5.28;3.13;;;9.50;99.90;;;;;;5093371;28;20064;-86
2022/03/14 04:32:42;;;;;;;3.60;2.88;;;9.60;99.90;;;;;;5093522;28;20185;-87
2022/03/14 04:35:08;;;;;;;4.15;2.85;;;9.60;99.90;;;;;;5093709;28;20531;-86
2022/03/14 04:37:34;;;;;;;4.60;3.10;;;9.60;99.90;;;;;;5093439;28;20509;-86
2022/03/14 04:39:59;;;;;;;5.43;3.00;;;9.50;99.90;;;;;;5093558;28;20051;-86
2022/03/14 04:42:25;;;;;;;5.00;3.22;;;9.50;99.90;;;;;;5092984;28;20175;-86
2022/03/14 04:44:52;;;;;;;5.97;3.67;;;9.40;99.90;;;;;;5093268;28;20370;-86
2022/03/14 04:47:18;;;;;;;4.18;3.05;;;9.40;99.90;;;;;;5093132;28;20089;-87
2022/03/14 04:49:44;;;;;;;4.30;3.42;;;9.40;99.90;;;;;;5093055;28;20040;-86
2022/03/14 04:52:10;;;;;;;4.90;3.65;;;9.40;99.90;;;;;;5093034;28;20050;-87
2022/03/14 04:54:36;;;;;;;5.97;3.95;;;9.40;99.90;;;;;;5093188;28;20417;-86
2022/03/14 04:57:01;;;;;;;5.80;4.00;;;9.40;99.90;;;;;;5092856;28;20056;-86
2022/03/14 04:59:27;;;;;;;6.03;3.83;;;9.40;99.90;;;;;;5076221;28;20428;-86
2022/03/14 05:01:52;;;;;;;4.63;3.42;;;9.40;99.90;;;;;;5092786;28;20079;-86
2022/03/14 05:04:18;;;;;;;8.10;4.07;;;9.60;99.90;;;;;;5075600;28;20094;-86
2022/03/14 05:06:45;;;;;;;6.93;4.25;;;9.30;99.90;;;;;;5093258;28;20134;-86
2022/03/14 05:09:10;;;;;;;5.25;3.95;;;9.30;99.90;;;;;;5092539;28;20490;-87
2022/03/14 05:11:38;;;;;;;11.30;4.20;;;9.20;99.90;;;;;;5092456;28;20075;-86
2022/03/14 05:14:10;;;;;;;5.93;4.63;;;9.10;99.90;;;;;;5092676;28;20487;-87
2022/03/14 05:16:36;;;;;;;6.25;4.32;;;9.00;99.90;;;;;;5093498;28;20044;-87
2022/03/14 05:19:02;;;;;;;7.47;4.70;;;9.00;99.90;;;;;;5092886;28;20051;-87
2022/03/14 05:21:27;;;;;;;5.60;4.40;;;8.90;99.90;;;;;;5092712;28;20044;-87
2022/03/14 05:23:53;;;;;;;8.02;5.53;;;8.80;99.90;;;;;;5092689;28;20494;-87
2022/03/14 05:26:19;;;;;;;9.15;5.47;;;8.70;99.90;;;;;;5092411;28;20139;-88
2022/03/14 05:28:44;;;;;;;8.90;6.07;;;8.70;99.90;;;;;;5092430;28;20100;-88
2022/03/14 05:31:10;;;;;;;8.20;5.63;;;8.60;99.90;;;;;;5092286;28;20055;-88
2022/03/14 05:33:36;;;;;;;8.50;5.50;;;8.60;99.90;;;;;;5091932;28;20052;-88
2022/03/14 05:36:01;;;;;;;11.25;5.88;;;8.50;99.90;;;;;;5075116;28;20490;-88
2022/03/14 05:38:28;;;;;;;9.23;5.63;;;8.50;99.90;;;;;;5092353;28;20051;-88
2022/03/14 05:40:55;;;;;;;10.18;5.60;;;8.50;99.90;;;;;;5092319;28;20128;-88
2022/03/14 05:43:21;;;;;;;9.10;5.30;;;8.50;99.90;;;;;;5091916;28;20516;-88
2022/03/14 05:45:47;;;;;;;7.13;5.38;;;8.60;99.90;;;;;;5092305;28;20044;-88
2022/03/14 05:48:13;;;;;;;8.43;5.45;;;8.40;99.90;;;;;;5092090;28;20456;-88
2022/03/14 05:50:38;;;;;;;9.57;6.03;;;8.40;99.90;;;;;;5075219;28;20086;-88
2022/03/14 05:53:04;;;;;;;6.97;5.15;;;8.40;99.90;;;;;;5092113;28;20040;-88
2022/03/14 05:55:30;;;;;;;7.40;5.47;;;8.40;99.90;;;;;;5092136;28;20435;-88
2022/03/14 05:57:56;;;;;;;7.47;4.72;;;8.40;99.90;;;;;;5091985;28;20367;-88
2022/03/14 06:00:25;;;;;;;6.65;5.35;;;8.40;99.90;;;;;;5091814;28;20052;-88
2022/03/14 06:02:52;;;;;;;6.47;5.13;;;8.40;99.90;;;;;;5091701;28;20489;-88
2022/03/14 06:05:20;;;;;;;6.28;4.90;;;8.40;99.90;;;;;;5091758;28;20052;-88
2022/03/14 06:07:46;;;;;;;7.10;4.63;;;8.50;99.90;;;;;;5073871;28;20059;-88
2022/03/14 06:10:13;;;;;;;7.32;5.20;;;8.50;99.90;;;;;;5091211;28;20040;-88
2022/03/14 06:12:39;;;;;;;6.75;4.75;;;8.40;99.90;;;;;;5091661;28;20044;-89
2022/03/14 06:15:12;;;;;;;6.07;5.07;;;8.40;99.90;;;;;;5091245;28;20052;-89
2022/03/14 06:17:40;;;;;;;6.63;4.90;;;8.40;99.90;;;;;;5091857;28;20096;-88
2022/03/14 06:20:07;;;;;;;5.93;4.63;;;8.50;99.90;;;;;;5091292;28;20428;-88
2022/03/14 06:22:38;;;;;;;8.35;5.43;;;8.50;99.90;;;;;;5091764;28;20048;-88
2022/03/14 06:25:04;;;;;;;9.63;4.93;;;8.50;99.90;;;;;;5091607;28;20048;-88
2022/03/14 06:27:30;;;;;;;6.45;5.22;;;8.50;99.90;;;;;;5091121;28;20092;-88
2022/03/14 06:29:56;;;;;;;6.45;4.93;;;8.50;99.90;;;;;;5091188;28;20480;-88
2022/03/14 06:32:21;;;;;;;6.22;4.55;;;8.50;99.90;;;;;;5091538;28;20058;-89
2022/03/14 06:34:47;;;;;;;7.07;5.10;;;8.50;99.90;;;;;;5074513;28;20405;-88
2022/03/14 06:37:13;;;;;;;6.60;4.75;;;8.50;99.90;;;;;;5074542;28;20067;-88
2022/03/14 06:39:39;;;;;;;7.25;5.70;;;8.50;99.90;;;;;;5091522;28;20092;-88
2022/03/14 06:42:09;;;;;;;6.70;4.80;;;8.60;99.90;;;;;;5074621;28;20458;-88
2022/03/14 06:44:39;;;;;;;6.85;5.53;;;8.60;99.90;;;;;;5074478;28;20401;-88
2022/03/14 06:47:09;;;;;;;7.90;5.35;;;8.60;99.90;;;;;;5091489;28;20063;-88
2022/03/14 06:49:36;;;;;;;7.80;5.65;;;8.70;99.90;;;;;;5091285;28;20040;-88
2022/03/14 06:52:03;;;;;;;9.40;6.20;;;8.60;99.90;;;;;;5074340;28;20044;-88
2022/03/14 06:54:28;;;;;;;7.85;5.57;;;8.60;99.90;;;;;;5091242;28;20386;-89
2022/03/14 06:56:57;;;;;;;6.85;5.80;;;8.80;99.90;;;;;;5090575;28;20047;-88
2022/03/14 06:59:23;;;;;;;7.45;5.60;;;8.80;99.90;;;;;;5084680;28;20054;-87
2022/03/14 07:01:49;;;;;;;8.50;6.18;;;8.70;99.90;;;;;;5081207;28;20047;-86
2022/03/14 07:04:15;;;;;;;10.98;6.63;;;8.70;99.90;;;;;;5090584;28;20044;-89
2022/03/14 07:06:43;;;;;;;8.57;5.97;;;8.70;99.90;;;;;;5091489;28;20497;-88
2022/03/14 07:09:09;;;;;;;8.60;5.90;;;8.80;99.90;;;;;;5073897;28;20391;-89
2022/03/14 07:11:35;;;;;;;8.50;6.05;;;8.70;99.90;;;;;;5090953;28;20143;-89
2022/03/14 07:14:01;;;;;;;9.10;6.10;;;8.80;99.90;;;;;;5090874;28;20082;-89
2022/03/14 07:16:27;;;;;;;6.43;5.55;;;8.80;99.90;;;;;;5073926;28;20088;-88
2022/03/14 07:18:52;;;;;;;7.80;6.25;;;8.90;99.90;;;;;;5091211;28;20071;-88
2022/03/14 07:21:18;;;;;;;7.20;6.03;;;8.90;99.90;;;;;;5074323;28;20379;-88
2022/03/14 07:23:44;;;;;;;8.25;6.03;;;8.90;99.90;;;;;;5091234;28;20383;-89
2022/03/14 07:26:11;;;;;;;9.52;5.97;;;9.00;99.90;;;;;;5091020;28;20044;-88
2022/03/14 07:28:38;;;;;;;8.10;6.32;;;9.00;99.90;;;;;;5093297;28;20399;-88
2022/03/14 07:31:05;;;;;;;7.72;5.95;;;9.00;99.90;;;;;;5094129;28;20048;-88
2022/03/14 07:33:31;;;;;;;8.68;6.72;;;9.00;99.90;;;;;;5094875;28;20058;-87
2022/03/14 07:35:56;;;;;;;7.25;5.95;;;9.00;99.90;;;;;;5094922;28;20044;-88
2022/03/14 07:38:22;;;;;;;9.85;6.60;;;9.10;99.90;;;;;;5094685;28;20036;-88
2022/03/14 07:40:48;;;;;;;8.73;6.22;;;9.00;99.90;;;;;;5094624;28;20044;-88
2022/03/14 07:43:13;;;;;;;10.13;6.60;;;9.00;99.90;;;;;;5077995;28;20047;-88
2022/03/14 07:45:39;;;;;;;12.60;6.45;;;9.00;99.90;;;;;;5077348;28;20094;-88
2022/03/14 07:48:05;;;;;;;9.60;7.30;;;9.10;99.90;;;;;;5094641;28;20052;-88
2022/03/14 07:50:31;;;;;;;8.80;6.78;;;9.30;99.90;;;;;;5094315;28;20378;-88
2022/03/14 07:52:57;;;;;;;10.25;7.22;;;9.10;99.90;;;;;;5077492;28;20040;-88
2022/03/14 07:55:23;;;;;;;8.95;7.35;;;9.10;99.90;;;;;;5094445;28;20052;-89
2022/03/14 07:57:49;;;;;;;9.90;6.55;;;9.00;99.90;;;;;;5077679;28;20485;-88
2022/03/14 08:00:18;;;;;;;11.88;7.80;;;9.10;99.90;;;;;;5094941;28;20056;-88
2022/03/14 08:02:45;;;;;;;10.93;7.32;;;9.10;99.90;;;;;;5096917;28;20044;-88
2022/03/14 08:05:16;;;;;;;9.40;7.57;;;9.10;99.90;;;;;;5077959;28;20040;-89
2022/03/14 08:07:44;;;;;;;;;;;9.10;99.90;;;;;;5088174;28;20068;-88
2022/03/14 08:10:12;;;;;;;11.23;8.02;;;9.00;99.90;;;;;;5108141;28;19931;-88
2022/03/14 08:12:53;;;;;;;11.43;8.65;;;9.10;99.90;;;;;;5106991;28;20443;-89
2022/03/14 08:15:26;;;;;;;8.85;7.25;;;9.00;99.90;;;;;;5079411;28;20371;-88
2022/03/14 08:17:54;;;;;;;13.77;9.13;;;9.00;99.90;;;;;;5095366;28;20374;-89
2022/03/14 08:20:22;;;;;;;13.30;9.20;;;9.00;99.90;;;;;;5094816;28;20048;-88
2022/03/14 08:22:49;;;;;;;16.40;9.43;;;8.90;99.90;;;;;;5078513;28;20047;-89
2022/03/14 08:25:15;;;;;;;12.18;9.90;;;9.10;99.90;;;;;;5077640;28;20044;-89
2022/03/14 08:27:42;;;;;;;14.27;10.00;;;8.90;99.90;;;;;;5077766;28;20098;-89
2022/03/14 08:30:08;;;;;;;14.82;10.63;;;8.90;99.90;;;;;;5093988;28;20139;-89
2022/03/14 08:32:35;;;;;;;17.23;10.40;;;8.90;99.90;;;;;;5094677;28;20127;-89
2022/03/14 08:35:08;;;;;;;16.38;12.50;;;8.90;99.90;;;;;;5077602;28;20494;-89
2022/03/14 08:37:45;;;;;;;19.15;13.43;;;8.90;99.90;;;;;;5094495;28;20093;-89
2022/03/14 08:40:14;;;;;;;21.23;14.23;;;8.80;99.90;;;;;;5093646;28;20040;-89
2022/03/14 08:42:41;;;;;;;18.80;14.23;;;8.80;99.90;;;;;;5094169;28;20044;-89
2022/03/14 08:45:08;;;;;;;27.75;15.88;;;8.80;99.90;;;;;;5077386;28;20366;-88
2022/03/14 08:47:35;;;;;;;22.50;16.05;;;8.80;99.90;;;;;;5093626;28;20493;-89
2022/03/14 08:50:02;;;;;;;26.00;16.73;;;8.80;99.90;;;;;;5093979;28;20481;-89
2022/03/14 08:52:29;;;;;;;21.33;15.40;;;8.80;99.90;;;;;;5094173;28;20048;-90
2022/03/14 08:54:56;;;;;;;26.00;16.52;;;9.00;99.90;;;;;;5093558;28;20047;-89
2022/03/14 08:57:22;;;;;;;23.83;15.63;;;8.80;99.90;;;;;;5076581;28;20055;-89
2022/03/14 08:59:48;;;;;;;20.10;13.27;;;8.80;99.90;;;;;;5094698;28;20055;-90
2022/03/14 09:02:14;;;;;;;15.52;11.27;;;8.70;99.90;;;;;;5093682;28;20101;-88
2022/03/14 09:04:40;;;;;;;17.73;11.27;;;8.70;99.90;;;;;;5077151;28;20491;-89
2022/03/14 09:07:06;;;;;;;18.70;12.77;;;8.60;99.90;;;;;;5094046;28;20055;-89
2022/03/14 09:09:33;;;;;;;19.10;12.05;;;8.70;99.90;;;;;;5075989;28;20051;-89
2022/03/14 09:11:58;;;;;;;19.50;10.90;;;8.60;99.90;;;;;;5093755;28;20048;-89
2022/03/14 09:14:24;;;;;;;17.80;11.27;;;8.60;99.90;;;;;;5094160;28;20058;-89
2022/03/14 09:16:51;;;;;;;22.45;12.85;;;8.60;99.90;;;;;;5093573;28;20160;-89
2022/03/14 09:19:17;;;;;;;22.23;13.98;;;8.60;99.90;;;;;;5076303;28;20040;-90
2022/03/14 09:21:43;;;;;;;25.30;15.18;;;8.70;99.90;;;;;;5093617;28;20086;-89
2022/03/14 09:24:08;;;;;;;28.42;15.90;;;8.80;99.90;;;;;;5093812;28;20087;-90
2022/03/14 09:26:36;;;;;;;32.97;18.15;;;8.70;99.90;;;;;;5093511;28;20044;-90
2022/03/14 09:29:02;;;;;;;29.52;17.13;;;8.80;99.90;;;;;;5093287;28;20040;-91
2022/03/14 09:31:29;;;;;;;34.95;18.17;;;8.90;99.90;;;;;;5093141;28;20140;-91
2022/03/14 09:33:55;;;;;;;34.00;16.60;;;8.80;99.90;;;;;;5076522;28;20140;-91
2022/03/14 09:36:21;;;;;;;35.75;17.58;;;8.80;99.90;;;;;;5076712;28;20070;-91
2022/03/14 09:38:46;;;;;;;34.75;17.65;;;8.80;99.90;;;;;;5093806;28;20036;-91
2022/03/14 09:41:16;;;;;;;31.42;17.52;;;8.60;99.90;;;;;;5093512;28;20205;-91
2022/03/14 09:43:45;;;;;;;35.53;17.00;;;8.90;99.90;;;;;;5094351;28;20176;-91
2022/03/14 09:46:12;;;;;;;35.72;15.70;;;8.70;99.90;;;;;;5094834;28;20051;-91
2022/03/14 09:48:44;;;;;;;28.50;14.25;;;8.80;99.90;;;;;;5095383;28;20051;-92
2022/03/14 09:51:10;;;;;;;25.38;13.00;;;8.80;99.90;;;;;;5098684;28;20048;-91
2022/03/14 09:53:37;;;;;;;28.92;12.85;;;8.70;99.90;;;;;;5101877;28;20400;-92
2022/03/14 09:56:03;;;;;;;21.42;10.70;;;8.80;99.90;;;;;;5082593;28;20105;-90
2022/03/14 09:58:28;;;;;;;20.27;9.27;;;8.80;99.90;;;;;;5096799;28;20073;-91
2022/03/14 10:00:54;;;;;;;22.40;9.93;;;8.80;99.90;;;;;;5084154;28;20529;-90
2022/03/14 10:03:21;;;;;;;19.35;10.18;;;8.80;99.90;;;;;;5102995;28;20056;-89
2022/03/14 10:05:47;;;;;;;18.25;8.55;;;8.80;99.90;;;;;;5079973;28;20036;-90
2022/03/14 10:08:14;;;;;;;22.67;8.30;;;8.90;99.90;;;;;;5079511;28;20468;-90
2022/03/14 10:10:40;;;;;;;21.90;7.80;;;8.90;99.90;;;;;;5079001;28;20076;-90
2022/03/14 10:13:08;;;;;;;19.08;8.10;;;9.20;99.90;;;;;;5079761;28;20067;-90
2022/03/14 10:15:38;;;;;;;22.30;7.82;;;9.10;99.90;;;;;;5092850;28;20097;-91
2022/03/14 10:18:15;;;;;;;18.30;7.63;;;9.00;99.90;;;;;;5094027;28;20048;-90
2022/03/14 10:21:01;;;;;;;15.18;6.63;;;9.10;99.90;;;;;;5076228;28;20040;-90
2022/03/14 10:23:30;;;;;;;17.77;6.22;;;9.10;99.90;;;;;;5075656;28;20040;-90
2022/03/14 10:25:56;;;;;;;14.13;6.22;;;9.10;99.90;;;;;;5076266;28;20138;-91
2022/03/14 10:28:23;;;;;;;16.38;5.78;;;9.10;99.90;;;;;;5092198;28;20105;-90
2022/03/14 10:30:57;;;;;;;16.52;6.05;;;9.10;99.90;;;;;;5074998;28;20078;-90
2022/03/14 10:33:23;;;;;;;18.23;4.80;;;9.20;99.90;;;;;;5092464;28;20059;-89
2022/03/14 10:35:49;;;;;;;16.33;5.40;;;9.30;99.90;;;;;;5091958;28;20048;-90
2022/03/14 10:38:16;;;;;;;13.32;4.40;;;9.60;99.90;;;;;;5092571;28;20131;-90
2022/03/14 10:40:44;;;;;;;13.13;4.68;;;9.50;99.90;;;;;;5092275;28;20055;-90
2022/03/14 10:43:32;;;;;;;12.50;4.20;;;9.50;99.90;;;;;;5092419;28;20043;-89
2022/03/14 10:46:00;;;;;;;14.88;4.15;;;9.60;99.90;;;;;;5093047;28;20101;-89
2022/03/14 10:48:39;;;;;;;13.80;3.90;;;9.60;99.90;;;;;;5092371;28;20054;-90
2022/03/14 10:51:07;;;;;;;16.95;4.55;;;9.80;99.90;;;;;;5091807;28;20048;-90
2022/03/14 10:53:34;;;;;;;14.57;4.13;;;9.90;99.90;;;;;;5075146;28;20044;-89
2022/03/14 10:56:03;;;;;;;11.50;3.58;;;10.00;99.90;;;;;;5091965;28;20447;-89
2022/03/14 10:58:33;;;;;;;13.73;4.30;;;10.10;99.90;;;;;;5075131;28;20040;-89
2022/03/14 11:01:02;;;;;;;17.50;4.30;;;10.30;99.90;;;;;;5091358;28;20083;-89
2022/03/14 11:03:29;;;;;;;10.15;3.92;;;10.50;99.90;;;;;;5078505;28;20570;-88
2022/03/14 11:06:00;;;;;;;13.60;3.90;;;10.60;99.90;;;;;;5095987;28;20100;-88
2022/03/14 11:08:32;;;;;;;10.63;4.00;;;10.70;99.90;;;;;;5079011;28;20060;-89
2022/03/14 11:11:03;;;;;;;11.30;3.45;;;10.70;99.90;;;;;;5096383;28;20501;-88
2022/03/14 11:13:29;;;;;;;11.80;4.25;;;10.70;99.90;;;;;;5095726;28;20054;-89
2022/03/14 11:15:56;;;;;;;15.07;4.00;;;10.70;99.90;;;;;;5096167;28;20460;-89
2022/03/14 11:18:23;;;;;;;9.63;3.28;;;10.80;99.90;;;;;;5078380;28;20144;-88
2022/03/14 11:20:49;;;;;;;11.93;3.92;;;10.70;99.90;;;;;;5095858;28;20083;-88
2022/03/14 11:23:15;;;;;;;13.50;4.15;;;10.60;99.90;;;;;;5078581;28;20048;-88
2022/03/14 11:25:45;;;;;;;14.35;3.88;;;10.70;99.90;;;;;;5095479;28;20167;-88
2022/03/14 11:28:15;;;;;;;14.25;4.22;;;10.70;99.90;;;;;;5095321;28;20055;-89
2022/03/14 11:30:46;;;;;;;14.50;3.83;;;10.70;99.90;;;;;;5094811;28;20055;-88
2022/03/14 11:33:14;;;;;;;17.25;4.82;;;10.70;99.90;;;;;;5095556;28;20389;-88
2022/03/14 11:35:42;;;;;;;12.63;4.78;;;10.70;99.90;;;;;;5095843;28;20138;-89
2022/03/14 11:38:08;;;;;;;15.68;5.53;;;10.60;99.90;;;;;;5095399;28;20051;-88
2022/03/14 11:40:36;;;;;;;13.88;5.95;;;10.70;99.90;;;;;;5078697;28;20052;-88
2022/03/14 11:43:03;;;;;;;17.33;6.47;;;10.70;99.90;;;;;;5094943;28;20055;-88
2022/03/14 11:45:30;;;;;;;11.95;5.68;;;10.60;99.90;;;;;;5095493;28;20048;-88
2022/03/14 11:47:57;;;;;;;11.68;6.18;;;10.60;99.90;;;;;;5095401;28;20382;-87
2022/03/14 11:50:23;;;;;;;11.05;6.68;;;10.70;99.90;;;;;;5079732;28;20047;-88
2022/03/14 11:52:50;;;;;;;17.10;8.57;;;10.80;99.90;;;;;;5095891;28;20131;-88
2022/03/14 11:55:17;;;;;;;14.23;8.57;;;10.90;99.90;;;;;;5097178;28;20572;-89
2022/03/14 11:57:47;;;;;;;18.40;9.93;;;10.90;99.90;;;;;;5088983;28;20044;-88
2022/03/14 12:00:24;;;;;;;16.58;9.43;;;11.10;99.90;;;;;;5104052;28;20052;-88
2022/03/14 12:02:52;;;;;;;15.65;9.60;;;11.20;99.90;;;;;;5098993;28;20495;-88
2022/03/14 12:05:22;;;;;;;15.25;9.50;;;11.30;99.90;;;;;;5095526;28;20128;-87
2022/03/14 12:07:48;;;;;;;16.47;10.80;;;11.50;99.90;;;;;;5094932;28;20519;-88
2022/03/14 12:10:34;;;;;;;20.27;10.02;;;11.60;99.90;;;;;;5094649;28;20054;-87
2022/03/14 12:13:01;;;;;;;18.63;11.00;;;11.90;99.90;;;;;;5077011;28;20044;-88
2022/03/14 12:15:44;;;;;;;18.58;11.02;;;12.00;99.90;;;;;;5094227;28;20040;-88
2022/03/14 12:18:25;;;;;;;20.98;12.18;;;12.10;99.90;;;;;;5077436;28;20056;-88
2022/03/14 12:20:51;;;;;;;18.33;11.13;;;12.20;99.90;;;;;;5094295;28;20040;-88
2022/03/14 12:23:37;;;;;;;18.35;11.52;;;12.30;99.90;;;;;;5077831;28;20504;-88
2022/03/14 12:26:23;;;;;;;19.42;11.30;;;12.40;99.90;;;;;;5110762;28;20574;-88
2022/03/14 12:28:49;;;;;;;19.17;11.52;;;12.70;99.90;;;;;;5094370;28;20079;-88
2022/03/14 12:31:16;;;;;;;19.58;12.05;;;12.70;99.90;;;;;;5077431;28;20098;-87
2022/03/14 12:33:46;;;;;;;17.08;10.68;;;13.30;99.90;;;;;;5094330;28;20047;-88
2022/03/14 12:36:22;;;;;;;22.30;11.27;;;13.60;99.90;;;;;;5094594;28;20048;-88
2022/03/14 12:39:21;;;;;;;16.73;9.93;;;13.90;99.90;;;;;;5077740;28;20128;-87
2022/03/14 12:41:47;;;;;;;20.50;9.20;;;14.10;99.90;;;;;;5053764;28;20084;-88
2022/03/14 12:44:23;;;;;;;17.30;10.02;;;14.40;99.90;;;;;;5036464;28;20136;-88
2022/03/14 12:46:52;;;;;;;21.35;10.43;;;14.60;99.90;;;;;;5036100;28;20131;-88
2022/03/14 12:49:26;;;;;;;17.90;8.48;;;14.70;99.90;;;;;;5019381;28;20534;-88
2022/03/14 12:52:13;;;;;;;17.40;8.10;;;14.70;99.90;;;;;;5035994;28;20057;-87